sensor_id;sensor_type;location;lat;lon;timestamp;pressure;altitude;pressure_sealevel;temperature;humidity
21129;BME280;10722;51.910;8.352;2023-05-25T00:00:47;101793.53;;;10.42;100.00
21129;BME280;10722;51.910;8.352;2023-05-25T00:03:47;101781.09;;;10.32;100.00
21129;BME280;10722;51.910;8.352;2023-05-25T00:06:32;101787.38;;;10.16;100.00
21129;BME280;10722;51.910;8.352;2023-05-25T00:09:18;101795.47;;;10.25;100.00
21129;BME280;10722;51.910;8.352;2023-05-25T00:12:03;101796.78;;;10.14;100.00
21129;BME280;10722;51.910;8.352;2023-05-25T00:14:49;101796.31;;;10.02;100.00
21129;BME280;10722;51.910;8.352;2023-05-25T00:17:34;101785.84;;;9.97;100.00
21129;BME280;10722;51.910;8.352;2023-05-25T00:20:19;101793.31;;;9.90;100.00
21129;BME280;10722;51.910;8.352;2023-05-25T00:23:05;101796.00;;;9.93;100.00
21129;BME280;10722;51.910;8.352;2023-05-25T00:25:50;101791.25;;;9.81;100.00
21129;BME280;10722;51.910;8.352;2023-05-25T00:28:36;101789.78;;;9.65;100.00
21129;BME280;10722;51.910;8.352;2023-05-25T00:31:21;101798.13;;;9.58;100.00
21129;BME280;10722;51.910;8.352;2023-05-25T00:34:06;101798.03;;;9.55;100.00
21129;BME280;10722;51.910;8.352;2023-05-25T00:36:53;101804.75;;;9.51;100.00
21129;BME280;10722;51.910;8.352;2023-05-25T00:39:38;101793.50;;;9.72;100.00
21129;BME280;10722;51.910;8.352;2023-05-25T00:42:24;101791.16;;;9.55;100.00
21129;BME280;10722;51.910;8.352;2023-05-25T00:45:10;101784.81;;;9.47;100.00
21129;BME280;10722;51.910;8.352;2023-05-25T00:47:55;101789.25;;;9.51;100.00
21129;BME280;10722;51.910;8.352;2023-05-25T00:50:42;101781.69;;;9.56;100.00
21129;BME280;10722;51.910;8.352;2023-05-25T00:53:28;101786.78;;;9.54;100.00
21129;BME280;10722;51.910;8.352;2023-05-25T00:56:15;101784.56;;;9.41;100.00
21129;BME280;10722;51.910;8.352;2023-05-25T00:59:03;101793.34;;;9.24;100.00
21129;BME280;10722;51.910;8.352;2023-05-25T01:01:50;101789.22;;;9.29;100.00
21129;BME280;10722;51.910;8.352;2023-05-25T01:04:40;101789.50;;;9.35;100.00
21129;BME280;10722;51.910;8.352;2023-05-25T01:07:29;101783.97;;;9.05;100.00
21129;BME280;10722;51.910;8.352;2023-05-25T01:10:14;101786.88;;;8.91;100.00
21129;BME280;10722;51.910;8.352;2023-05-25T01:13:01;101794.41;;;9.08;100.00
21129;BME280;10722;51.910;8.352;2023-05-25T01:15:47;101796.50;;;8.95;100.00
21129;BME280;10722;51.910;8.352;2023-05-25T01:18:34;101797.56;;;8.80;100.00
21129;BME280;10722;51.910;8.352;2023-05-25T01:21:30;101798.56;;;8.83;100.00
21129;BME280;10722;51.910;8.352;2023-05-25T01:24:29;101805.63;;;8.87;100.00
21129;BME280;10722;51.910;8.352;2023-05-25T01:27:24;101800.97;;;8.79;100.00
21129;BME280;10722;51.910;8.352;2023-05-25T01:30:13;101804.47;;;8.60;100.00
21129;BME280;10722;51.910;8.352;2023-05-25T01:33:00;101799.31;;;8.60;100.00
21129;BME280;10722;51.910;8.352;2023-05-25T01:35:46;101805.84;;;8.51;100.00
21129;BME280;10722;51.910;8.352;2023-05-25T01:38:32;101802.50;;;8.54;100.00
21129;BME280;10722;51.910;8.352;2023-05-25T01:41:17;101801.69;;;8.55;100.00
21129;BME280;10722;51.910;8.352;2023-05-25T01:44:03;101807.84;;;8.59;100.00
21129;BME280;10722;51.910;8.352;2023-05-25T01:46:52;101809.97;;;8.48;100.00
21129;BME280;10722;51.910;8.352;2023-05-25T01:50:05;101805.22;;;8.57;100.00
21129;BME280;10722;51.910;8.352;2023-05-25T01:53:00;101802.28;;;8.49;100.00
21129;BME280;10722;51.910;8.352;2023-05-25T01:55:53;101803.16;;;8.30;100.00
21129;BME280;10722;51.910;8.352;2023-05-25T01:58:42;101809.25;;;8.50;100.00
21129;BME280;10722;51.910;8.352;2023-05-25T02:01:28;101804.09;;;8.50;100.00
21129;BME280;10722;51.910;8.352;2023-05-25T02:04:16;101796.44;;;8.34;100.00
21129;BME280;10722;51.910;8.352;2023-05-25T02:07:03;101799.81;;;8.33;100.00
21129;BME280;10722;51.910;8.352;2023-05-25T02:09:49;101805.59;;;8.27;100.00
21129;BME280;10722;51.910;8.352;2023-05-25T02:12:34;101798.44;;;8.20;100.00
21129;BME280;10722;51.910;8.352;2023-05-25T02:15:20;101806.75;;;8.15;100.00
21129;BME280;10722;51.910;8.352;2023-05-25T02:18:05;101800.16;;;8.02;100.00
21129;BME280;10722;51.910;8.352;2023-05-25T02:20:51;101814.00;;;8.04;100.00
21129;BME280;10722;51.910;8.352;2023-05-25T02:23:36;101813.94;;;8.02;100.00
21129;BME280;10722;51.910;8.352;2023-05-25T02:26:21;101811.72;;;8.10;100.00
21129;BME280;10722;51.910;8.352;2023-05-25T02:29:07;101811.91;;;7.95;100.00
21129;BME280;10722;51.910;8.352;2023-05-25T02:31:52;101813.63;;;7.77;100.00
21129;BME280;10722;51.910;8.352;2023-05-25T02:34:37;101818.84;;;7.78;100.00
21129;BME280;10722;51.910;8.352;2023-05-25T02:37:23;101817.28;;;7.82;100.00
21129;BME280;10722;51.910;8.352;2023-05-25T02:40:08;101810.63;;;7.68;100.00
21129;BME280;10722;51.910;8.352;2023-05-25T02:42:54;101816.78;;;7.89;100.00
21129;BME280;10722;51.910;8.352;2023-05-25T02:45:39;101816.22;;;7.96;100.00
21129;BME280;10722;51.910;8.352;2023-05-25T02:48:25;101821.47;;;7.98;100.00
21129;BME280;10722;51.910;8.352;2023-05-25T02:51:10;101809.94;;;7.90;100.00
21129;BME280;10722;51.910;8.352;2023-05-25T02:53:55;101811.22;;;7.80;100.00
21129;BME280;10722;51.910;8.352;2023-05-25T02:56:41;101807.91;;;7.64;100.00
21129;BME280;10722;51.910;8.352;2023-05-25T02:59:26;101805.19;;;7.61;100.00
21129;BME280;10722;51.910;8.352;2023-05-25T03:02:11;101809.34;;;7.58;100.00
21129;BME280;10722;51.910;8.352;2023-05-25T03:04:56;101806.22;;;7.65;100.00
21129;BME280;10722;51.910;8.352;2023-05-25T03:07:42;101812.59;;;7.73;100.00
21129;BME280;10722;51.910;8.352;2023-05-25T03:10:27;101804.63;;;7.49;100.00
21129;BME280;10722;51.910;8.352;2023-05-25T03:13:12;101815.44;;;7.42;100.00
21129;BME280;10722;51.910;8.352;2023-05-25T03:15:58;101823.91;;;7.57;100.00
21129;BME280;10722;51.910;8.352;2023-05-25T03:18:43;101826.28;;;7.35;100.00
21129;BME280;10722;51.910;8.352;2023-05-25T03:21:28;101831.03;;;7.45;100.00
21129;BME280;10722;51.910;8.352;2023-05-25T03:24:14;101836.78;;;7.57;100.00
21129;BME280;10722;51.910;8.352;2023-05-25T03:26:59;101845.84;;;7.49;100.00
21129;BME280;10722;51.910;8.352;2023-05-25T03:29:47;101844.13;;;7.50;100.00
21129;BME280;10722;51.910;8.352;2023-05-25T03:32:33;101836.78;;;7.57;100.00
21129;BME280;10722;51.910;8.352;2023-05-25T03:35:18;101838.91;;;7.48;100.00
21129;BME280;10722;51.910;8.352;2023-05-25T03:38:04;101841.91;;;7.39;100.00
21129;BME280;10722;51.910;8.352;2023-05-25T03:40:49;101853.69;;;7.52;100.00
21129;BME280;10722;51.910;8.352;2023-05-25T03:43:35;101849.13;;;7.47;100.00
21129;BME280;10722;51.910;8.352;2023-05-25T03:46:20;101853.91;;;7.57;100.00
21129;BME280;10722;51.910;8.352;2023-05-25T03:49:05;101857.38;;;7.57;100.00
21129;BME280;10722;51.910;8.352;2023-05-25T03:51:50;101838.75;;;7.45;100.00
21129;BME280;10722;51.910;8.352;2023-05-25T03:54:36;101847.78;;;7.37;100.00
21129;BME280;10722;51.910;8.352;2023-05-25T03:57:21;101845.81;;;7.31;100.00
21129;BME280;10722;51.910;8.352;2023-05-25T04:00:07;101848.75;;;7.39;100.00
21129;BME280;10722;51.910;8.352;2023-05-25T04:02:52;101845.75;;;7.30;100.00
21129;BME280;10722;51.910;8.352;2023-05-25T04:05:38;101859.34;;;7.45;100.00
21129;BME280;10722;51.910;8.352;2023-05-25T04:08:23;101866.78;;;7.57;100.00
21129;BME280;10722;51.910;8.352;2023-05-25T04:11:09;101871.44;;;7.64;100.00
21129;BME280;10722;51.910;8.352;2023-05-25T04:13:54;101867.44;;;7.53;100.00
21129;BME280;10722;51.910;8.352;2023-05-25T04:16:39;101860.56;;;7.52;100.00
21129;BME280;10722;51.910;8.352;2023-05-25T04:19:25;101868.47;;;7.56;100.00
21129;BME280;10722;51.910;8.352;2023-05-25T04:22:10;101872.38;;;7.66;100.00
21129;BME280;10722;51.910;8.352;2023-05-25T04:24:55;101865.81;;;7.73;100.00
21129;BME280;10722;51.910;8.352;2023-05-25T04:27:40;101868.31;;;7.71;100.00
21129;BME280;10722;51.910;8.352;2023-05-25T04:30:25;101865.16;;;7.77;100.00
21129;BME280;10722;51.910;8.352;2023-05-25T04:33:10;101869.09;;;7.88;100.00
21129;BME280;10722;51.910;8.352;2023-05-25T04:35:56;101864.91;;;7.90;100.00
21129;BME280;10722;51.910;8.352;2023-05-25T04:38:41;101872.19;;;7.99;100.00
21129;BME280;10722;51.910;8.352;2023-05-25T04:41:26;101869.34;;;7.93;100.00
21129;BME280;10722;51.910;8.352;2023-05-25T04:44:12;101880.94;;;8.02;100.00
21129;BME280;10722;51.910;8.352;2023-05-25T04:46:58;101883.22;;;8.14;100.00
21129;BME280;10722;51.910;8.352;2023-05-25T04:49:43;101885.06;;;8.17;100.00
21129;BME280;10722;51.910;8.352;2023-05-25T04:52:29;101886.47;;;8.29;100.00
21129;BME280;10722;51.910;8.352;2023-05-25T04:55:14;101887.22;;;8.45;100.00
21129;BME280;10722;51.910;8.352;2023-05-25T04:58:00;101893.25;;;8.65;100.00
21129;BME280;10722;51.910;8.352;2023-05-25T05:00:45;101894.03;;;8.83;100.00
21129;BME280;10722;51.910;8.352;2023-05-25T05:03:31;101905.22;;;9.03;100.00
21129;BME280;10722;51.910;8.352;2023-05-25T05:06:16;101902.47;;;8.98;100.00
21129;BME280;10722;51.910;8.352;2023-05-25T05:09:01;101906.81;;;9.20;100.00
21129;BME280;10722;51.910;8.352;2023-05-25T05:11:46;101904.06;;;9.37;100.00
21129;BME280;10722;51.910;8.352;2023-05-25T05:14:31;101905.50;;;9.51;100.00
21129;BME280;10722;51.910;8.352;2023-05-25T05:17:17;101903.66;;;9.70;100.00
21129;BME280;10722;51.910;8.352;2023-05-25T05:20:03;101901.69;;;9.85;100.00
21129;BME280;10722;51.910;8.352;2023-05-25T05:22:48;101892.63;;;9.96;100.00
21129;BME280;10722;51.910;8.352;2023-05-25T05:25:33;101893.00;;;10.05;100.00
21129;BME280;10722;51.910;8.352;2023-05-25T05:28:18;101889.91;;;10.14;100.00
21129;BME280;10722;51.910;8.352;2023-05-25T05:31:04;101890.88;;;10.18;100.00
21129;BME280;10722;51.910;8.352;2023-05-25T05:33:49;101886.06;;;10.27;100.00
21129;BME280;10722;51.910;8.352;2023-05-25T05:36:35;101884.28;;;10.26;100.00
21129;BME280;10722;51.910;8.352;2023-05-25T05:39:40;101883.69;;;10.10;100.00
21129;BME280;10722;51.910;8.352;2023-05-25T05:42:25;101879.56;;;10.37;100.00
21129;BME280;10722;51.910;8.352;2023-05-25T05:45:10;101887.03;;;10.53;100.00
21129;BME280;10722;51.910;8.352;2023-05-25T05:47:55;101877.94;;;10.64;100.00
21129;BME280;10722;51.910;8.352;2023-05-25T05:50:41;101876.19;;;10.87;100.00
21129;BME280;10722;51.910;8.352;2023-05-25T05:53:26;101882.81;;;11.05;100.00
21129;BME280;10722;51.910;8.352;2023-05-25T05:56:18;101871.72;;;10.83;100.00
21129;BME280;10722;51.910;8.352;2023-05-25T05:59:03;101867.59;;;10.64;100.00
21129;BME280;10722;51.910;8.352;2023-05-25T06:01:48;101874.44;;;10.62;100.00
21129;BME280;10722;51.910;8.352;2023-05-25T06:04:34;101879.34;;;10.79;100.00
21129;BME280;10722;51.910;8.352;2023-05-25T06:07:19;101891.56;;;11.08;100.00
21129;BME280;10722;51.910;8.352;2023-05-25T06:10:05;101878.25;;;11.23;100.00
21129;BME280;10722;51.910;8.352;2023-05-25T06:12:51;101871.72;;;11.09;100.00
21129;BME280;10722;51.910;8.352;2023-05-25T06:15:36;101876.75;;;11.30;100.00
21129;BME280;10722;51.910;8.352;2023-05-25T06:18:22;101871.09;;;11.41;100.00
21129;BME280;10722;51.910;8.352;2023-05-25T06:21:07;101875.97;;;11.32;100.00
21129;BME280;10722;51.910;8.352;2023-05-25T06:23:54;101869.66;;;11.51;100.00
21129;BME280;10722;51.910;8.352;2023-05-25T06:26:40;101857.81;;;11.59;99.28
21129;BME280;10722;51.910;8.352;2023-05-25T06:29:25;101859.78;;;11.39;98.35
21129;BME280;10722;51.910;8.352;2023-05-25T06:32:10;101852.19;;;11.18;97.91
21129;BME280;10722;51.910;8.352;2023-05-25T06:34:56;101882.97;;;11.35;98.40
21129;BME280;10722;51.910;8.352;2023-05-25T06:37:41;101887.22;;;11.33;99.22
21129;BME280;10722;51.910;8.352;2023-05-25T06:40:26;101890.59;;;11.32;99.02
21129;BME280;10722;51.910;8.352;2023-05-25T06:43:12;101890.31;;;11.22;98.48
21129;BME280;10722;51.910;8.352;2023-05-25T06:45:57;101879.84;;;11.19;97.77
21129;BME280;10722;51.910;8.352;2023-05-25T06:48:43;101868.25;;;11.08;96.67
21129;BME280;10722;51.910;8.352;2023-05-25T06:51:28;101873.13;;;11.25;96.55
21129;BME280;10722;51.910;8.352;2023-05-25T06:54:13;101874.31;;;11.09;95.68
21129;BME280;10722;51.910;8.352;2023-05-25T06:56:59;101872.34;;;11.02;95.57
21129;BME280;10722;51.910;8.352;2023-05-25T06:59:44;101879.91;;;10.95;95.84
21129;BME280;10722;51.910;8.352;2023-05-25T07:02:29;101890.28;;;10.95;95.67
21129;BME280;10722;51.910;8.352;2023-05-25T07:05:15;101886.44;;;11.10;95.58
21129;BME280;10722;51.910;8.352;2023-05-25T07:08:00;101897.78;;;11.13;96.70
21129;BME280;10722;51.910;8.352;2023-05-25T07:10:45;101898.16;;;11.24;96.17
21129;BME280;10722;51.910;8.352;2023-05-25T07:13:34;101898.34;;;11.30;96.05
21129;BME280;10722;51.910;8.352;2023-05-25T07:16:19;101913.16;;;11.34;96.35
21129;BME280;10722;51.910;8.352;2023-05-25T07:19:05;101904.41;;;11.31;95.28
21129;BME280;10722;51.910;8.352;2023-05-25T07:21:50;101894.44;;;11.43;94.87
21129;BME280;10722;51.910;8.352;2023-05-25T07:24:36;101901.78;;;11.29;95.05
21129;BME280;10722;51.910;8.352;2023-05-25T07:27:21;101913.34;;;11.15;95.25
21129;BME280;10722;51.910;8.352;2023-05-25T07:30:06;101912.81;;;11.24;95.49
21129;BME280;10722;51.910;8.352;2023-05-25T07:32:52;101927.69;;;11.29;95.73
21129;BME280;10722;51.910;8.352;2023-05-25T07:35:37;101928.38;;;11.24;95.92
21129;BME280;10722;51.910;8.352;2023-05-25T07:38:22;101926.69;;;10.76;95.50
21129;BME280;10722;51.910;8.352;2023-05-25T07:41:08;101931.41;;;10.64;95.89
21129;BME280;10722;51.910;8.352;2023-05-25T07:43:53;101946.03;;;10.62;96.50
21129;BME280;10722;51.910;8.352;2023-05-25T07:46:39;101947.88;;;10.42;97.05
21129;BME280;10722;51.910;8.352;2023-05-25T07:49:24;101962.22;;;10.56;97.47
21129;BME280;10722;51.910;8.352;2023-05-25T07:52:10;101972.16;;;10.69;98.52
21129;BME280;10722;51.910;8.352;2023-05-25T07:54:55;101982.75;;;10.75;98.40
21129;BME280;10722;51.910;8.352;2023-05-25T07:57:41;101980.44;;;10.83;98.60
21129;BME280;10722;51.910;8.352;2023-05-25T08:00:26;101965.53;;;10.76;97.65
21129;BME280;10722;51.910;8.352;2023-05-25T08:03:12;101964.69;;;10.77;97.32
21129;BME280;10722;51.910;8.352;2023-05-25T08:05:57;101961.00;;;10.94;96.94
21129;BME280;10722;51.910;8.352;2023-05-25T08:08:43;101964.44;;;10.93;97.05
21129;BME280;10722;51.910;8.352;2023-05-25T08:11:28;101942.84;;;10.93;95.34
21129;BME280;10722;51.910;8.352;2023-05-25T08:14:13;101952.28;;;11.16;95.46
21129;BME280;10722;51.910;8.352;2023-05-25T08:16:59;101946.72;;;11.31;95.06
21129;BME280;10722;51.910;8.352;2023-05-25T08:19:44;101929.72;;;11.38;93.63
21129;BME280;10722;51.910;8.352;2023-05-25T08:22:29;101929.06;;;11.45;93.04
21129;BME280;10722;51.910;8.352;2023-05-25T08:25:14;101930.50;;;11.62;92.89
21129;BME280;10722;51.910;8.352;2023-05-25T08:27:59;101938.91;;;11.82;92.76
21129;BME280;10722;51.910;8.352;2023-05-25T08:30:45;101925.06;;;11.82;91.66
21129;BME280;10722;51.910;8.352;2023-05-25T08:33:30;101913.56;;;11.74;90.96
21129;BME280;10722;51.910;8.352;2023-05-25T08:36:16;101908.25;;;11.69;91.02
21129;BME280;10722;51.910;8.352;2023-05-25T08:39:02;101911.28;;;11.83;90.64
21129;BME280;10722;51.910;8.352;2023-05-25T08:41:49;101923.00;;;11.97;91.02
21129;BME280;10722;51.910;8.352;2023-05-25T08:44:35;101924.25;;;11.83;91.14
21129;BME280;10722;51.910;8.352;2023-05-25T08:47:21;101911.41;;;11.86;90.11
21129;BME280;10722;51.910;8.352;2023-05-25T08:50:11;101903.28;;;12.02;89.96
21129;BME280;10722;51.910;8.352;2023-05-25T08:52:58;101896.38;;;12.03;89.03
21129;BME280;10722;51.910;8.352;2023-05-25T08:55:48;101912.88;;;12.35;89.45
21129;BME280;10722;51.910;8.352;2023-05-25T08:58:38;101910.28;;;12.35;88.86
21129;BME280;10722;51.910;8.352;2023-05-25T09:01:27;101897.78;;;12.52;87.87
21129;BME280;10722;51.910;8.352;2023-05-25T09:04:17;101890.97;;;12.55;87.66
21129;BME280;10722;51.910;8.352;2023-05-25T09:07:04;101909.59;;;12.72;87.54
21129;BME280;10722;51.910;8.352;2023-05-25T09:09:56;101898.94;;;12.93;86.75
21129;BME280;10722;51.910;8.352;2023-05-25T09:12:41;101886.88;;;12.64;86.45
21129;BME280;10722;51.910;8.352;2023-05-25T09:15:26;101905.47;;;12.79;86.60
21129;BME280;10722;51.910;8.352;2023-05-25T09:18:12;101915.97;;;13.15;86.59
21129;BME280;10722;51.910;8.352;2023-05-25T09:20:57;101897.31;;;13.30;85.70
21129;BME280;10722;51.910;8.352;2023-05-25T09:23:42;101888.28;;;13.51;84.77
21129;BME280;10722;51.910;8.352;2023-05-25T09:26:28;101866.13;;;13.30;83.54
21129;BME280;10722;51.910;8.352;2023-05-25T09:29:14;101851.47;;;13.32;82.66
21129;BME280;10722;51.910;8.352;2023-05-25T09:31:59;101869.28;;;13.18;83.35
21129;BME280;10722;51.910;8.352;2023-05-25T09:34:46;101879.25;;;13.01;83.87
21129;BME280;10722;51.910;8.352;2023-05-25T09:37:31;101895.34;;;13.23;84.55
21129;BME280;10722;51.910;8.352;2023-05-25T09:40:16;101876.09;;;13.15;83.33
21129;BME280;10722;51.910;8.352;2023-05-25T09:43:02;101880.09;;;13.02;83.68
21129;BME280;10722;51.910;8.352;2023-05-25T09:45:51;101887.03;;;13.01;84.09
21129;BME280;10722;51.910;8.352;2023-05-25T09:48:37;101872.66;;;12.81;83.49
21129;BME280;10722;51.910;8.352;2023-05-25T09:51:22;101908.53;;;12.96;84.35
21129;BME280;10722;51.910;8.352;2023-05-25T09:54:09;101918.56;;;13.15;84.79
21129;BME280;10722;51.910;8.352;2023-05-25T09:56:54;101897.00;;;12.86;83.93
21129;BME280;10722;51.910;8.352;2023-05-25T09:59:41;101918.66;;;13.18;84.22
21129;BME280;10722;51.910;8.352;2023-05-25T10:02:27;101922.84;;;13.47;84.09
21129;BME280;10722;51.910;8.352;2023-05-25T10:05:12;101878.69;;;13.48;82.81
21129;BME280;10722;51.910;8.352;2023-05-25T10:07:58;101890.34;;;13.64;82.60
21129;BME280;10722;51.910;8.352;2023-05-25T10:10:49;101884.66;;;13.80;81.72
21129;BME280;10722;51.910;8.352;2023-05-25T10:13:35;101867.69;;;13.99;80.91
21129;BME280;10722;51.910;8.352;2023-05-25T10:16:24;101866.44;;;13.80;80.76
21129;BME280;10722;51.910;8.352;2023-05-25T10:22:03;101876.09;;;14.25;80.99
21129;BME280;10722;51.910;8.352;2023-05-25T10:27:55;101807.75;;;14.83;76.44
21129;BME280;10722;51.910;8.352;2023-05-25T10:30:44;101791.38;;;14.90;75.17
21129;BME280;10722;51.910;8.352;2023-05-25T10:33:31;101806.28;;;14.51;75.68
21129;BME280;10722;51.910;8.352;2023-05-25T10:36:17;101811.13;;;14.33;75.64
21129;BME280;10722;51.910;8.352;2023-05-25T10:39:05;101830.69;;;14.11;76.33
21129;BME280;10722;51.910;8.352;2023-05-25T10:41:53;101858.31;;;14.06;77.39
21129;BME280;10722;51.910;8.352;2023-05-25T10:44:42;101888.84;;;14.55;77.82
21129;BME280;10722;51.910;8.352;2023-05-25T10:47:28;101856.63;;;14.96;75.88
21129;BME280;10722;51.910;8.352;2023-05-25T10:50:22;101811.13;;;14.75;73.79
21129;BME280;10722;51.910;8.352;2023-05-25T10:53:12;101828.78;;;14.95;74.30
21129;BME280;10722;51.910;8.352;2023-05-25T10:58:42;101870.03;;;14.69;75.36
21129;BME280;10722;51.910;8.352;2023-05-25T11:01:30;101890.97;;;14.73;76.59
21129;BME280;10722;51.910;8.352;2023-05-25T11:04:15;101913.44;;;14.68;77.73
21129;BME280;10722;51.910;8.352;2023-05-25T11:09:57;101956.03;;;14.72;79.85
21129;BME280;10722;51.910;8.352;2023-05-25T11:12:44;101931.06;;;14.83;78.94
21129;BME280;10722;51.910;8.352;2023-05-25T11:15:30;101875.38;;;14.76;76.14
21129;BME280;10722;51.910;8.352;2023-05-25T11:18:15;101886.03;;;14.89;76.48
21129;BME280;10722;51.910;8.352;2023-05-25T11:24:16;101902.41;;;14.82;76.98
21129;BME280;10722;51.910;8.352;2023-05-25T11:27:01;101897.13;;;14.78;77.16
21129;BME280;10722;51.910;8.352;2023-05-25T11:29:49;101896.16;;;14.73;76.92
21129;BME280;10722;51.910;8.352;2023-05-25T11:32:35;101874.19;;;14.59;76.23
21129;BME280;10722;51.910;8.352;2023-05-25T11:35:20;101874.53;;;14.33;76.56
21129;BME280;10722;51.910;8.352;2023-05-25T11:38:06;101899.16;;;14.51;77.40
21129;BME280;10722;51.910;8.352;2023-05-25T11:40:52;101875.81;;;14.54;76.97
21129;BME280;10722;51.910;8.352;2023-05-25T11:43:37;101867.59;;;14.35;76.35
21129;BME280;10722;51.910;8.352;2023-05-25T11:46:23;101879.84;;;14.40;77.00
21129;BME280;10722;51.910;8.352;2023-05-25T11:49:08;101867.66;;;14.39;76.72
21129;BME280;10722;51.910;8.352;2023-05-25T11:51:55;101874.94;;;14.53;76.53
21129;BME280;10722;51.910;8.352;2023-05-25T11:54:41;101861.28;;;14.65;76.01
21129;BME280;10722;51.910;8.352;2023-05-25T11:57:27;101834.84;;;14.47;75.21
21129;BME280;10722;51.910;8.352;2023-05-25T12:00:23;101842.16;;;14.21;75.58
21129;BME280;10722;51.910;8.352;2023-05-25T12:03:08;101867.47;;;14.29;76.46
21129;BME280;10722;51.910;8.352;2023-05-25T12:05:54;101878.63;;;14.24;77.10
21129;BME280;10722;51.910;8.352;2023-05-25T12:08:39;101906.31;;;14.61;78.42
21129;BME280;10722;51.910;8.352;2023-05-25T12:11:33;101895.25;;;14.70;78.30
21129;BME280;10722;51.910;8.352;2023-05-25T12:14:18;101875.72;;;14.51;76.79
21129;BME280;10722;51.910;8.352;2023-05-25T12:17:04;101880.13;;;14.52;77.25
21129;BME280;10722;51.910;8.352;2023-05-25T12:19:50;101889.31;;;14.78;77.02
21129;BME280;10722;51.910;8.352;2023-05-25T12:22:37;101872.88;;;14.83;76.95
21129;BME280;10722;51.910;8.352;2023-05-25T12:25:23;101834.38;;;14.65;75.47
21129;BME280;10722;51.910;8.352;2023-05-25T12:28:13;101821.53;;;14.75;74.30
21129;BME280;10722;51.910;8.352;2023-05-25T12:31:18;101835.34;;;14.70;74.68
21129;BME280;10722;51.910;8.352;2023-05-25T12:34:14;101823.91;;;14.63;74.12
21129;BME280;10722;51.910;8.352;2023-05-25T12:37:00;101833.72;;;14.78;74.44
21129;BME280;10722;51.910;8.352;2023-05-25T12:39:46;101827.25;;;15.06;74.00
21129;BME280;10722;51.910;8.352;2023-05-25T12:42:32;101843.91;;;15.14;74.75
21129;BME280;10722;51.910;8.352;2023-05-25T12:45:17;101803.75;;;15.01;72.88
21129;BME280;10722;51.910;8.352;2023-05-25T12:48:02;101821.16;;;15.06;73.76
21129;BME280;10722;51.910;8.352;2023-05-25T12:50:57;101807.03;;;14.91;73.04
21129;BME280;10722;51.910;8.352;2023-05-25T12:53:50;101810.06;;;15.17;73.11
21129;BME280;10722;51.910;8.352;2023-05-25T12:56:52;101806.78;;;15.29;73.22
21129;BME280;10722;51.910;8.352;2023-05-25T12:59:40;101808.56;;;15.32;73.21
21129;BME280;10722;51.910;8.352;2023-05-25T13:02:25;101828.13;;;15.61;73.20
21129;BME280;10722;51.910;8.352;2023-05-25T13:05:24;101774.31;;;15.68;71.14
21129;BME280;10722;51.910;8.352;2023-05-25T13:08:11;101762.00;;;15.59;70.47
21129;BME280;10722;51.910;8.352;2023-05-25T13:10:56;101752.34;;;15.52;69.86
21129;BME280;10722;51.910;8.352;2023-05-25T13:13:41;101758.81;;;15.79;69.61
21129;BME280;10722;51.910;8.352;2023-05-25T13:16:27;101776.41;;;15.95;70.31
21129;BME280;10722;51.910;8.352;2023-05-25T13:19:14;101766.94;;;16.03;69.74
21129;BME280;10722;51.910;8.352;2023-05-25T13:22:00;101785.16;;;15.97;70.37
21129;BME280;10722;51.910;8.352;2023-05-25T13:24:46;101733.41;;;15.65;68.48
21129;BME280;10722;51.910;8.352;2023-05-25T13:27:31;101761.97;;;15.56;69.83
21129;BME280;10722;51.910;8.352;2023-05-25T13:30:17;101768.34;;;15.77;69.80
21129;BME280;10722;51.910;8.352;2023-05-25T13:33:02;101775.03;;;15.58;70.05
21129;BME280;10722;51.910;8.352;2023-05-25T13:35:48;101792.22;;;16.06;70.59
21129;BME280;10722;51.910;8.352;2023-05-25T13:38:34;101779.53;;;16.41;69.48
21129;BME280;10722;51.910;8.352;2023-05-25T13:41:20;101755.53;;;16.77;68.39
21129;BME280;10722;51.910;8.352;2023-05-25T13:44:06;101695.28;;;16.64;66.04
21129;BME280;10722;51.910;8.352;2023-05-25T13:46:51;101699.47;;;16.46;66.27
21129;BME280;10722;51.910;8.352;2023-05-25T13:49:36;101714.22;;;16.38;67.07
21129;BME280;10722;51.910;8.352;2023-05-25T13:52:22;101759.56;;;16.46;68.63
21129;BME280;10722;51.910;8.352;2023-05-25T13:55:07;101752.69;;;16.57;68.45
21129;BME280;10722;51.910;8.352;2023-05-25T13:57:52;101721.19;;;16.39;67.51
21129;BME280;10722;51.910;8.352;2023-05-25T14:00:38;101726.34;;;16.31;67.73
21129;BME280;10722;51.910;8.352;2023-05-25T14:03:23;101724.59;;;16.32;67.38
21129;BME280;10722;51.910;8.352;2023-05-25T14:06:08;101727.22;;;16.32;66.98
21129;BME280;10722;51.910;8.352;2023-05-25T14:08:54;101719.38;;;16.32;67.04
21129;BME280;10722;51.910;8.352;2023-05-25T14:11:39;101709.81;;;16.32;66.86
21129;BME280;10722;51.910;8.352;2023-05-25T14:14:24;101707.09;;;16.20;66.44
21129;BME280;10722;51.910;8.352;2023-05-25T14:17:16;101740.47;;;16.52;68.10
21129;BME280;10722;51.910;8.352;2023-05-25T14:20:02;101745.06;;;16.77;67.92
21129;BME280;10722;51.910;8.352;2023-05-25T14:22:48;101732.97;;;16.89;67.38
21129;BME280;10722;51.910;8.352;2023-05-25T14:25:33;101699.78;;;16.77;66.15
21129;BME280;10722;51.910;8.352;2023-05-25T14:28:19;101690.91;;;16.59;66.09
21129;BME280;10722;51.910;8.352;2023-05-25T14:31:04;101679.34;;;16.33;65.81
21129;BME280;10722;51.910;8.352;2023-05-25T14:33:49;101684.63;;;16.39;65.49
21129;BME280;10722;51.910;8.352;2023-05-25T14:36:34;101690.72;;;16.40;65.69
21129;BME280;10722;51.910;8.352;2023-05-25T14:39:19;101707.38;;;16.52;66.28
21129;BME280;10722;51.910;8.352;2023-05-25T14:42:05;101664.47;;;16.23;64.93
21129;BME280;10722;51.910;8.352;2023-05-25T14:44:50;101677.44;;;16.13;65.35